createdAt,value
2022-11-18T00:00:54.004Z,76.5
2022-11-18T00:02:10.191Z,76.6
2022-11-18T00:03:26.370Z,76.7
2022-11-18T00:04:42.595Z,76.7
2022-11-18T00:05:58.775Z,76.7
2022-11-18T00:07:14.934Z,76.7
2022-11-18T00:08:31.153Z,76.4
2022-11-18T00:09:46.343Z,76.4
2022-11-18T00:11:02.556Z,76.6
2022-11-18T00:12:18.711Z,76.6
2022-11-18T00:13:34.932Z,76.6
2022-11-18T00:14:51.096Z,76.8
2022-11-18T00:16:07.291Z,76.7
2022-11-18T00:17:23.478Z,76.6
2022-11-18T00:18:39.659Z,76.8
2022-11-18T00:19:55.842Z,76.6
2022-11-18T00:21:12.067Z,76.8
2022-11-18T00:22:28.263Z,76.8
2022-11-18T00:23:44.413Z,76.7
2022-11-18T00:25:00.610Z,76.7
2022-11-18T00:26:15.805Z,76.7
2022-11-18T00:27:32.005Z,76.7
2022-11-18T00:28:48.227Z,76.7
2022-11-18T00:30:04.388Z,76.8
2022-11-18T00:31:20.577Z,76.7
2022-11-18T00:32:36.761Z,76.7
2022-11-18T00:33:52.974Z,76.7
2022-11-18T00:35:09.157Z,76.8
2022-11-18T00:36:25.354Z,76.7
2022-11-18T00:37:41.518Z,76.7
2022-11-18T00:38:57.704Z,76.8
2022-11-18T00:40:13.888Z,76.7
2022-11-18T00:41:30.101Z,76.8
2022-11-18T00:42:45.291Z,76.8
2022-11-18T00:44:01.489Z,76.9
2022-11-18T00:45:17.668Z,76.8
2022-11-18T00:46:33.857Z,76.6
2022-11-18T00:47:50.046Z,76.8
2022-11-18T00:49:06.263Z,76.7
2022-11-18T00:50:22.431Z,76.7
2022-11-18T00:51:38.618Z,76.8
2022-11-18T00:52:54.812Z,76.7
2022-11-18T00:54:10.993Z,76.8
2022-11-18T00:55:27.177Z,76.6
2022-11-18T00:56:43.383Z,76.8
2022-11-18T00:57:59.563Z,76.9
2022-11-18T00:59:14.786Z,76.9
2022-11-18T01:00:30.945Z,76.8
2022-11-18T01:01:47.139Z,76.7
2022-11-18T01:03:03.330Z,76.9
2022-11-18T01:04:19.520Z,76.8
2022-11-18T01:05:35.716Z,76.7
2022-11-18T01:06:51.926Z,76.7
2022-11-18T01:08:08.111Z,76.7
2022-11-18T01:09:24.281Z,76.8
2022-11-18T01:10:40.479Z,76.8
2022-11-18T01:11:56.668Z,76.8
2022-11-18T01:13:12.869Z,76.9
2022-11-18T01:14:29.042Z,76.8
2022-11-18T01:15:44.243Z,76.8
2022-11-18T01:17:00.423Z,76.8
2022-11-18T01:18:16.615Z,76.9
2022-11-18T01:19:32.803Z,76.9
2022-11-18T01:20:49.001Z,76.8
2022-11-18T01:22:05.192Z,76.9
2022-11-18T01:23:21.369Z,76.8
2022-11-18T01:24:37.572Z,77
2022-11-18T01:25:53.768Z,76.9
2022-11-18T01:27:09.953Z,76.9
2022-11-18T01:28:26.137Z,76.9
2022-11-18T01:29:42.326Z,77
2022-11-18T01:30:58.522Z,77
2022-11-18T01:32:13.731Z,77
2022-11-18T01:33:29.904Z,77
2022-11-18T01:34:46.103Z,77
2022-11-18T01:36:02.285Z,77
2022-11-18T01:37:18.493Z,77
2022-11-18T01:38:34.683Z,76.9
2022-11-18T01:39:50.856Z,76.8
2022-11-18T01:41:07.052Z,77
2022-11-18T01:42:23.224Z,76.9
2022-11-18T01:43:39.426Z,76.9
2022-11-18T01:44:55.611Z,77
2022-11-18T01:46:11.797Z,76.9
2022-11-18T01:47:27.999Z,76.9
2022-11-18T01:48:43.194Z,76.9
2022-11-18T01:49:59.381Z,76.9
2022-11-18T01:51:15.582Z,76.9
2022-11-18T01:52:31.771Z,76.8
2022-11-18T01:53:47.950Z,77
2022-11-18T01:55:04.152Z,77
2022-11-18T01:56:20.340Z,77
2022-11-18T01:57:36.518Z,76.9
2022-11-18T01:58:52.715Z,76.9
2022-11-18T02:00:08.894Z,77
2022-11-18T02:01:25.000Z,77.1
2022-11-18T02:02:41.278Z,77
2022-11-18T02:03:57.463Z,76.9
2022-11-18T02:05:12.679Z,76.9
2022-11-18T02:06:28.858Z,77
2022-11-18T02:07:45.052Z,77
2022-11-18T02:09:01.245Z,77.1
2022-11-18T02:10:17.438Z,77
2022-11-18T02:11:33.625Z,76.9
2022-11-18T02:12:49.814Z,77
2022-11-18T02:14:06.003Z,77.1
2022-11-18T02:15:22.182Z,76.9
2022-11-18T02:16:38.376Z,77
2022-11-18T02:17:54.564Z,77
2022-11-18T02:19:10.750Z,77
2022-11-18T02:20:26.953Z,76.9
2022-11-18T02:21:42.150Z,77.1
2022-11-18T02:22:58.333Z,77.1
2022-11-18T02:24:14.529Z,76.9
2022-11-18T02:25:30.710Z,76.9
2022-11-18T02:26:46.897Z,76.9
2022-11-18T02:28:03.106Z,76.8
2022-11-18T02:29:19.291Z,76.9
2022-11-18T02:30:35.480Z,77
2022-11-18T02:31:51.667Z,77.1
2022-11-18T02:33:07.859Z,76.9
2022-11-18T02:34:24.041Z,77
2022-11-18T02:35:40.231Z,77
2022-11-18T02:36:56.419Z,77
2022-11-18T02:38:11.619Z,76.7
2022-11-18T02:39:27.816Z,77.1
2022-11-18T02:40:44.007Z,76.9
2022-11-18T02:42:00.183Z,77
2022-11-18T02:43:16.389Z,76.9
2022-11-18T02:44:32.555Z,76.9
2022-11-18T02:45:48.746Z,77
2022-11-18T02:47:04.945Z,76.8
2022-11-18T02:48:21.148Z,76.9
2022-11-18T02:49:37.325Z,77.1
2022-11-18T02:50:53.521Z,77
2022-11-18T02:52:09.708Z,77.1
2022-11-18T02:53:25.882Z,76.9
2022-11-18T02:54:41.103Z,77
2022-11-18T02:55:57.282Z,76.9
2022-11-18T02:57:13.477Z,76.9
2022-11-18T02:58:29.670Z,76.8
2022-11-18T02:59:45.860Z,76.9
2022-11-18T03:01:02.052Z,77.1
2022-11-18T03:02:18.228Z,77.1
2022-11-18T03:03:34.418Z,77
2022-11-18T03:04:50.605Z,77.1
2022-11-18T03:06:06.807Z,77.1
2022-11-18T03:07:22.988Z,77.1
2022-11-18T03:08:39.166Z,76.9
2022-11-18T03:09:55.372Z,77
2022-11-18T03:11:10.555Z,77.1
2022-11-18T03:12:26.786Z,76.9
2022-11-18T03:13:42.960Z,76.9
2022-11-18T03:14:59.148Z,76.9
2022-11-18T03:16:15.311Z,77.1
2022-11-18T03:17:31.499Z,77.1
2022-11-18T03:18:46.734Z,77
2022-11-18T03:20:02.910Z,77
2022-11-18T03:21:19.117Z,76.9
2022-11-18T03:22:35.301Z,77
2022-11-18T03:23:51.484Z,77.1
2022-11-18T03:25:07.673Z,77.1
2022-11-18T03:26:23.867Z,76.9
2022-11-18T03:27:40.057Z,77.1
2022-11-18T03:28:56.245Z,76.9
2022-11-18T03:30:12.446Z,77
2022-11-18T03:31:28.601Z,76.9
2022-11-18T03:32:44.812Z,77
2022-11-18T03:34:01.001Z,77.1
2022-11-18T03:35:16.218Z,77.1
2022-11-18T03:36:32.400Z,76.9
2022-11-18T03:37:48.591Z,77
2022-11-18T03:39:04.782Z,77.1
2022-11-18T03:40:20.963Z,77.2
2022-11-18T03:41:37.152Z,77.1
2022-11-18T03:42:53.353Z,77
2022-11-18T03:44:09.528Z,77
2022-11-18T03:45:25.719Z,77.1
2022-11-18T03:46:41.885Z,77
2022-11-18T03:47:58.099Z,77
2022-11-18T03:49:14.285Z,77.1
2022-11-18T03:50:30.486Z,77.1
2022-11-18T03:51:45.692Z,77
2022-11-18T03:53:01.882Z,77.1
2022-11-18T03:54:18.042Z,76.9
2022-11-18T03:55:34.243Z,77
2022-11-18T03:56:50.434Z,77.2
2022-11-18T03:58:06.606Z,77.1
2022-11-18T03:59:22.823Z,77
2022-11-18T04:00:39.015Z,77.1
2022-11-18T04:01:55.163Z,76.9
2022-11-18T04:03:11.378Z,77
2022-11-18T04:04:27.569Z,77.1
2022-11-18T04:05:43.742Z,77.1
2022-11-18T04:06:59.932Z,77.1
2022-11-18T04:08:15.127Z,77.2
2022-11-18T04:09:31.320Z,77
2022-11-18T04:10:47.518Z,77.1
2022-11-18T04:12:03.718Z,77.1
2022-11-18T04:13:19.884Z,77.1
2022-11-18T04:14:36.113Z,77.1
2022-11-18T04:15:52.289Z,77
2022-11-18T04:17:08.491Z,77
2022-11-18T04:18:24.682Z,77.2
2022-11-18T04:19:40.854Z,77.2
2022-11-18T04:20:57.043Z,77.1
2022-11-18T04:22:13.240Z,77.2
2022-11-18T04:23:29.395Z,77.1
2022-11-18T04:24:44.610Z,77.2
2022-11-18T04:26:00.817Z,77.2
2022-11-18T04:27:17.016Z,77.1
2022-11-18T04:28:33.172Z,77.3
2022-11-18T04:29:49.357Z,77.2
2022-11-18T04:31:05.580Z,77.2
2022-11-18T04:32:21.769Z,77.2
2022-11-18T04:33:37.955Z,77
2022-11-18T04:34:54.142Z,77.2
2022-11-18T04:36:10.342Z,77.1
2022-11-18T04:37:26.526Z,77.2
2022-11-18T04:38:42.684Z,77.2
2022-11-18T04:39:58.872Z,77.2
2022-11-18T04:41:14.107Z,77.3
2022-11-18T04:42:30.302Z,77.2
2022-11-18T04:43:46.499Z,77
2022-11-18T04:45:02.639Z,77.2
2022-11-18T04:46:18.858Z,77.2
2022-11-18T04:47:35.025Z,77.2
2022-11-18T04:48:51.206Z,77.2
2022-11-18T04:50:07.437Z,77
2022-11-18T04:51:23.626Z,77.3
2022-11-18T04:52:39.765Z,77.2
2022-11-18T04:53:56.000Z,77.2
2022-11-18T04:55:12.157Z,77.1
2022-11-18T04:56:28.373Z,77.1
2022-11-18T04:57:43.579Z,77.1
2022-11-18T04:58:59.759Z,77.1
2022-11-18T05:00:15.961Z,77
2022-11-18T05:01:32.094Z,77.2
2022-11-18T05:02:48.295Z,77.3
2022-11-18T05:04:04.509Z,77.2
2022-11-18T05:05:20.703Z,77.2
2022-11-18T05:06:36.893Z,77.2
2022-11-18T05:07:53.074Z,77.2
2022-11-18T05:09:09.267Z,77.2
2022-11-18T05:10:25.406Z,77.2
2022-11-18T05:11:41.635Z,77.2
2022-11-18T05:12:57.837Z,77.1
2022-11-18T05:14:13.025Z,77.2
2022-11-18T05:15:29.183Z,77.1
2022-11-18T05:16:45.395Z,77.3
2022-11-18T05:18:01.550Z,77.3
2022-11-18T05:19:17.784Z,77
2022-11-18T05:20:33.958Z,77.3
2022-11-18T05:21:50.111Z,77.2
2022-11-18T05:23:06.306Z,77.3
2022-11-18T05:24:22.523Z,77.2
2022-11-18T05:25:38.664Z,77.3
2022-11-18T05:26:54.863Z,77.4
2022-11-18T05:28:11.102Z,77.2
2022-11-18T05:29:27.271Z,77.4
2022-11-18T05:30:42.433Z,77.3
2022-11-18T05:31:58.669Z,77.3
2022-11-18T05:33:14.808Z,77.3
2022-11-18T05:34:31.045Z,77.2
2022-11-18T05:35:47.232Z,77.2
2022-11-18T05:37:03.379Z,77.3
2022-11-18T05:38:19.600Z,77.3
2022-11-18T05:40:51.989Z,77.3
2022-11-18T05:42:08.179Z,77.4
2022-11-18T05:43:24.366Z,77.3
2022-11-18T05:44:40.550Z,77.3
2022-11-18T05:45:56.729Z,77.3
2022-11-18T05:47:11.889Z,77.3
2022-11-18T05:48:28.085Z,77.3
2022-11-18T05:49:44.315Z,77.4
2022-11-18T05:51:00.508Z,77.3
2022-11-18T05:52:16.637Z,77.1
2022-11-18T05:53:32.868Z,77.4
2022-11-18T05:54:49.067Z,77.3
2022-11-18T05:56:05.198Z,77.4
2022-11-18T05:57:21.428Z,77.3
2022-11-18T05:58:37.620Z,77.4
2022-11-18T05:59:53.801Z,77.3
2022-11-18T06:01:09.994Z,77.2
2022-11-18T06:02:26.124Z,77.3
2022-11-18T06:03:41.341Z,77.4
2022-11-18T06:04:57.567Z,77.2
2022-11-18T06:06:13.754Z,77.3
2022-11-18T06:07:29.899Z,77.3
2022-11-18T06:08:46.129Z,77.3
2022-11-18T06:10:02.322Z,77.3
2022-11-18T06:11:18.452Z,77.1
2022-11-18T06:12:34.702Z,77.3
2022-11-18T06:13:50.892Z,77.3
2022-11-18T06:15:07.067Z,77.3
2022-11-18T06:16:23.263Z,77.1
2022-11-18T06:17:39.401Z,77.1
2022-11-18T06:18:55.637Z,77.3
2022-11-18T06:20:10.844Z,77.3
2022-11-18T06:21:27.029Z,77.3
2022-11-18T06:22:43.206Z,77.3
2022-11-18T06:23:59.411Z,77.4
2022-11-18T06:25:15.534Z,77.3
2022-11-18T06:26:31.726Z,77.4
2022-11-18T06:27:47.971Z,77.4
2022-11-18T06:29:04.152Z,77.5
2022-11-18T06:30:20.281Z,77.3
2022-11-18T06:31:36.531Z,77.4
2022-11-18T06:32:52.721Z,77.3
2022-11-18T06:34:08.835Z,77.2
2022-11-18T06:35:25.101Z,77.3
2022-11-18T06:36:40.240Z,77.3
2022-11-18T06:37:56.424Z,77.3
2022-11-18T06:39:12.666Z,77.2
2022-11-18T06:40:28.864Z,77.3
2022-11-18T06:41:44.985Z,77.3
2022-11-18T06:43:01.239Z,77.4
2022-11-18T06:44:17.411Z,77.4
2022-11-18T06:45:33.600Z,77.2
2022-11-18T06:46:49.794Z,77.4
2022-11-18T06:48:05.989Z,77.3
2022-11-18T06:49:22.163Z,77.3
2022-11-18T06:50:38.304Z,77.4
2022-11-18T06:51:54.488Z,77.3
2022-11-18T06:53:09.745Z,77.4
2022-11-18T06:54:25.933Z,77.3
2022-11-18T06:55:42.063Z,77.3
2022-11-18T06:56:58.305Z,77.3
2022-11-18T06:58:14.500Z,77.2
2022-11-18T06:59:30.691Z,77.3
2022-11-18T07:00:46.865Z,77.2
2022-11-18T07:02:02.992Z,77.4
2022-11-18T07:03:19.238Z,77.3
2022-11-18T07:04:35.377Z,77.2
2022-11-18T07:05:51.622Z,77.3
2022-11-18T07:07:07.805Z,77.3
2022-11-18T07:08:23.928Z,77.2
2022-11-18T07:09:39.205Z,77.3
2022-11-18T07:10:55.395Z,77.2
2022-11-18T07:12:11.586Z,77.3
2022-11-18T07:13:27.774Z,77.2
2022-11-18T07:14:43.952Z,77.3
2022-11-18T07:16:00.072Z,77.2
2022-11-18T07:17:16.327Z,77.2
2022-11-18T07:19:48.695Z,77.3
2022-11-18T07:21:04.892Z,77.2
2022-11-18T07:22:21.074Z,77.2
2022-11-18T07:23:37.202Z,77.1
2022-11-18T07:24:53.386Z,77.1
2022-11-18T07:26:08.660Z,77.1
2022-11-18T07:27:24.763Z,77
2022-11-18T07:28:40.959Z,77.3
2022-11-18T07:29:57.221Z,77.3
2022-11-18T07:31:13.414Z,77.1
2022-11-18T07:32:29.524Z,77.2
2022-11-18T07:33:44.726Z,77.2
2022-11-18T07:35:00.913Z,77.1
2022-11-18T07:36:17.171Z,77.3
2022-11-18T07:37:33.362Z,77.1
2022-11-18T07:38:49.488Z,77.2
2022-11-18T07:40:05.735Z,77.1
2022-11-18T07:41:21.936Z,77.1
2022-11-18T07:42:38.036Z,77.2
2022-11-18T07:43:54.292Z,77.3
2022-11-18T07:45:10.494Z,77.1
2022-11-18T07:46:26.668Z,77.2
2022-11-18T07:47:42.861Z,77.1
2022-11-18T07:48:58.987Z,77.1
2022-11-18T07:50:15.286Z,77.2
2022-11-18T07:51:31.553Z,77.1
2022-11-18T07:52:47.738Z,77
2022-11-18T07:54:03.934Z,77.1
2022-11-18T07:55:20.108Z,77.1
2022-11-18T07:56:36.303Z,77.1
2022-11-18T07:57:52.491Z,77
2022-11-18T07:59:08.675Z,77.1
2022-11-18T08:00:24.866Z,76.9
2022-11-18T08:01:41.059Z,76.9
2022-11-18T08:02:57.151Z,76.9
2022-11-18T08:04:13.433Z,77
2022-11-18T08:05:29.609Z,76.7
2022-11-18T08:06:44.737Z,76.9
2022-11-18T08:08:01.008Z,76.8
2022-11-18T08:09:17.109Z,77
2022-11-18T08:10:33.384Z,76.8
2022-11-18T08:11:49.558Z,76.8
2022-11-18T08:13:05.675Z,76.8
2022-11-18T08:14:21.946Z,76.7
2022-11-18T08:15:38.119Z,76.7
2022-11-18T08:16:54.320Z,76.8
2022-11-18T08:18:10.413Z,76.8
2022-11-18T08:19:26.690Z,76.7
2022-11-18T08:20:42.879Z,76.6
2022-11-18T08:21:59.068Z,76.6
2022-11-18T08:23:14.275Z,76.6
2022-11-18T08:24:30.448Z,76.5
2022-11-18T08:25:46.634Z,76.6
2022-11-18T08:27:02.836Z,76.7
2022-11-18T08:28:18.926Z,76.6
2022-11-18T08:29:35.210Z,76.4
2022-11-18T08:30:51.404Z,76.4
2022-11-18T08:32:07.572Z,76.6
2022-11-18T08:33:23.776Z,76.4
2022-11-18T08:34:39.965Z,76.7
2022-11-18T08:35:56.060Z,76.7
2022-11-18T08:37:12.250Z,76.6
2022-11-18T08:38:28.515Z,76.7
2022-11-18T08:39:43.633Z,76.5
2022-11-18T08:40:59.916Z,76.6
2022-11-18T08:42:16.097Z,76.6
2022-11-18T08:43:32.198Z,76.3
2022-11-18T08:44:48.469Z,76.5
2022-11-18T08:46:04.658Z,76.5
2022-11-18T08:47:20.751Z,76.5
2022-11-18T08:48:36.941Z,76.7
2022-11-18T08:49:53.124Z,76.6
2022-11-18T08:51:09.328Z,76.8
2022-11-18T08:52:25.597Z,76.7
2022-11-18T08:53:41.687Z,76.8
2022-11-18T08:54:57.975Z,76.8
2022-11-18T08:56:13.087Z,76.8
2022-11-18T08:57:29.366Z,76.7
2022-11-18T08:58:45.458Z,76.7
2022-11-18T09:00:01.733Z,76.7
2022-11-18T09:01:17.921Z,76.5
2022-11-18T09:02:34.106Z,76.7
2022-11-18T09:03:50.311Z,76.5
2022-11-18T09:05:06.391Z,76.7
2022-11-18T09:06:22.575Z,76.7
2022-11-18T09:07:38.865Z,76.7
2022-11-18T09:08:55.052Z,76.8
2022-11-18T09:10:11.239Z,76.7
2022-11-18T09:11:27.419Z,76.6
2022-11-18T09:12:42.628Z,76.6
2022-11-18T09:13:58.716Z,76.5
2022-11-18T09:15:14.909Z,76.7
2022-11-18T09:16:31.185Z,76.7
2022-11-18T09:17:47.387Z,76.6
2022-11-18T09:19:03.559Z,76.8
2022-11-18T09:20:19.750Z,76.8
2022-11-18T09:21:35.946Z,76.7
2022-11-18T09:22:52.134Z,76.9
2022-11-18T09:24:08.325Z,76.8
2022-11-18T09:25:24.408Z,76.8
2022-11-18T09:26:40.689Z,76.9
2022-11-18T09:27:56.883Z,76.8
2022-11-18T09:29:13.066Z,76.8
2022-11-18T09:30:28.278Z,76.7
2022-11-18T09:31:44.461Z,76.7
2022-11-18T09:33:00.653Z,76.7
2022-11-18T09:34:16.729Z,76.7
2022-11-18T09:35:33.028Z,76.8
2022-11-18T09:36:49.199Z,76.8
2022-11-18T09:38:05.395Z,76.8
2022-11-18T09:39:21.589Z,76.8
2022-11-18T09:40:37.667Z,76.7
2022-11-18T09:41:53.954Z,76.6
2022-11-18T09:43:10.144Z,76.6
2022-11-18T09:44:26.221Z,76.7
2022-11-18T09:45:42.520Z,76.7
2022-11-18T09:46:57.713Z,76.7
2022-11-18T09:48:13.911Z,76.8
2022-11-18T09:49:30.106Z,76.7
2022-11-18T09:50:46.278Z,76.8
2022-11-18T09:52:02.468Z,76.8
2022-11-18T09:53:18.665Z,76.7
2022-11-18T09:54:34.845Z,76.6
2022-11-18T09:55:51.044Z,76.7
2022-11-18T09:57:07.224Z,76.7
2022-11-18T09:58:23.418Z,76.7
2022-11-18T09:59:39.490Z,76.4
2022-11-18T10:00:55.785Z,76.7
2022-11-18T10:02:11.971Z,76.9
2022-11-18T10:03:27.183Z,76.8
2022-11-18T10:04:43.356Z,76.8
2022-11-18T10:05:59.550Z,76.9
2022-11-18T10:07:15.633Z,77
2022-11-18T10:08:31.819Z,76.9
2022-11-18T10:09:48.111Z,76.8
2022-11-18T10:11:04.307Z,76.7
2022-11-18T10:12:20.385Z,76.6
2022-11-18T10:13:36.676Z,76.5
2022-11-18T10:14:52.750Z,76.4
2022-11-18T10:16:09.053Z,76.2
2022-11-18T10:17:25.226Z,75.6
2022-11-18T10:18:41.431Z,75.7
2022-11-18T10:19:56.634Z,75.3
2022-11-18T10:21:12.820Z,75.3
2022-11-18T10:22:28.888Z,75.1
2022-11-18T10:23:45.195Z,74.9
2022-11-18T10:25:01.381Z,74.8
2022-11-18T10:26:17.568Z,75.1
2022-11-18T10:27:33.745Z,75.3
2022-11-18T10:28:49.938Z,74.9
2022-11-18T10:30:06.007Z,75.1
2022-11-18T10:31:22.303Z,75.3
2022-11-18T10:32:38.508Z,75.3
2022-11-18T10:33:54.677Z,75.1
2022-11-18T10:35:10.757Z,75.3
2022-11-18T10:36:26.087Z,75.3
2022-11-18T10:37:42.161Z,75.3
2022-11-18T10:38:58.461Z,75.3
2022-11-18T10:40:14.643Z,75.3
2022-11-18T10:41:30.705Z,75.3
2022-11-18T10:42:47.018Z,75.3
2022-11-18T10:44:03.204Z,75.3
2022-11-18T10:45:19.391Z,75.5
2022-11-18T10:46:35.583Z,75.5
2022-11-18T10:47:51.769Z,75.3
2022-11-18T10:49:07.948Z,75.5
2022-11-18T10:50:24.145Z,75.3
2022-11-18T10:51:40.333Z,75.5
2022-11-18T10:52:55.412Z,75.3
2022-11-18T10:54:11.715Z,75.3
2022-11-18T10:55:27.915Z,75.3
2022-11-18T10:56:43.970Z,75.3
2022-11-18T10:58:00.279Z,75.3
2022-11-18T10:59:16.461Z,75.3
2022-11-18T11:00:32.538Z,75.3
2022-11-18T11:01:48.834Z,75.1
2022-11-18T11:03:05.031Z,75.3
2022-11-18T11:04:21.220Z,75.1
2022-11-18T11:05:37.398Z,75.5
2022-11-18T11:06:53.585Z,75.5
2022-11-18T11:08:09.786Z,75.3
2022-11-18T11:09:24.860Z,75.5
2022-11-18T11:10:41.167Z,75.5
2022-11-18T11:11:57.353Z,75.5
2022-11-18T11:13:13.536Z,75.5
2022-11-18T11:14:29.736Z,75.5
2022-11-18T11:15:45.792Z,75.5
2022-11-18T11:17:02.113Z,75.5
2022-11-18T11:18:18.314Z,75.3
2022-11-18T11:19:34.473Z,75.5
2022-11-18T11:20:50.674Z,75.5
2022-11-18T11:22:06.849Z,75.3
2022-11-18T11:23:23.048Z,75.3
2022-11-18T11:24:39.226Z,75.5
2022-11-18T11:25:54.434Z,75.6
2022-11-18T11:27:10.503Z,75.5
2022-11-18T11:28:26.818Z,75.6
2022-11-18T11:29:42.994Z,75.6
2022-11-18T11:30:59.059Z,75.6
2022-11-18T11:32:15.379Z,75.5
2022-11-18T11:33:31.425Z,75.4
2022-11-18T11:34:47.617Z,75.3
2022-11-18T11:36:03.947Z,75.4
2022-11-18T11:37:20.124Z,75.4
2022-11-18T11:38:36.194Z,75.4
2022-11-18T11:39:52.502Z,75.4
2022-11-18T11:41:08.566Z,75.6
2022-11-18T11:42:23.899Z,75.4
2022-11-18T11:43:40.067Z,75.4
2022-11-18T11:44:56.124Z,75.3
2022-11-18T11:46:12.325Z,75.5
2022-11-18T11:47:28.633Z,75.5
2022-11-18T11:48:43.855Z,75.6
2022-11-18T11:49:59.909Z,75.5
2022-11-18T11:51:16.095Z,75.3
2022-11-18T11:52:32.414Z,75.4
2022-11-18T11:53:48.457Z,75.7
2022-11-18T11:55:04.791Z,75.4
2022-11-18T11:56:20.847Z,75.6
2022-11-18T11:57:37.028Z,75.6
2022-11-18T11:58:53.352Z,75.5
2022-11-18T12:00:09.537Z,75.5
2022-11-18T12:01:25.590Z,75.5
2022-11-18T12:02:41.915Z,75.4
2022-11-18T12:03:58.096Z,75.6
2022-11-18T12:05:13.300Z,75.6
2022-11-18T12:06:29.345Z,75.7
2022-11-18T12:07:45.673Z,75.7
2022-11-18T12:09:01.722Z,75.7
2022-11-18T12:10:17.912Z,75.6
2022-11-18T12:11:34.238Z,75.6
2022-11-18T12:12:50.432Z,75.6
2022-11-18T12:14:06.470Z,75.3
2022-11-18T12:15:22.792Z,75.3
2022-11-18T12:16:38.843Z,75.4
2022-11-18T12:17:55.166Z,75.4
2022-11-18T12:19:11.371Z,75.6
2022-11-18T12:20:27.552Z,75.5
2022-11-18T12:21:42.746Z,75.3
2022-11-18T12:22:58.944Z,75.3
2022-11-18T12:24:15.124Z,75.3
2022-11-18T12:25:31.177Z,75
2022-11-18T12:26:47.369Z,75.3
2022-11-18T12:28:03.698Z,75.3
2022-11-18T12:29:19.888Z,75.3
2022-11-18T12:30:36.064Z,75
2022-11-18T12:31:52.256Z,75
2022-11-18T12:33:08.305Z,75
2022-11-18T12:34:24.640Z,75.3
2022-11-18T12:35:40.668Z,75
2022-11-18T12:36:57.003Z,75
2022-11-18T12:38:12.074Z,74.9
2022-11-18T12:39:28.254Z,75.1
2022-11-18T12:40:44.578Z,75
2022-11-18T12:42:00.778Z,75
2022-11-18T12:43:16.952Z,74.9
2022-11-18T12:44:33.136Z,75
2022-11-18T12:45:49.343Z,75
2022-11-18T12:47:05.370Z,74.9
2022-11-18T12:48:21.700Z,74.7
2022-11-18T12:49:37.898Z,75
2022-11-18T12:50:53.936Z,75
2022-11-18T12:52:10.266Z,75.1
2022-11-18T12:53:26.466Z,74.9
2022-11-18T12:54:41.511Z,75
2022-11-18T12:55:57.849Z,75
2022-11-18T12:57:14.046Z,75
2022-11-18T12:58:30.229Z,75
2022-11-18T12:59:46.413Z,75
2022-11-18T13:01:02.592Z,75
2022-11-18T13:02:18.644Z,74.9
2022-11-18T13:03:34.974Z,75
2022-11-18T13:04:51.159Z,74.9
2022-11-18T13:06:07.345Z,74.9
2022-11-18T13:07:23.384Z,74.9
2022-11-18T13:08:39.731Z,75
2022-11-18T13:09:55.910Z,75
2022-11-18T13:11:11.115Z,74.9
2022-11-18T13:12:27.311Z,74.9
2022-11-18T13:13:43.480Z,74.9
2022-11-18T13:14:59.679Z,74.9
2022-11-18T13:16:15.855Z,75.1
2022-11-18T13:17:32.053Z,75.1
2022-11-18T13:18:48.096Z,75
2022-11-18T13:20:04.417Z,75.2
2022-11-18T13:21:20.612Z,75.2
2022-11-18T13:22:36.655Z,75.3
2022-11-18T13:23:52.986Z,75
2022-11-18T13:25:09.023Z,75.4
2022-11-18T13:26:25.363Z,75.4
2022-11-18T13:27:40.565Z,75.4
2022-11-18T13:28:56.752Z,75.3
2022-11-18T13:30:12.953Z,75.3
2022-11-18T13:31:29.139Z,75.2
2022-11-18T13:32:45.164Z,75.3
2022-11-18T13:34:01.503Z,75.1
2022-11-18T13:35:17.683Z,75.2
2022-11-18T13:36:33.890Z,75.1
2022-11-18T13:37:50.068Z,75.1
2022-11-18T13:39:06.247Z,75
2022-11-18T13:40:22.288Z,75.1
2022-11-18T13:41:38.472Z,75.1
2022-11-18T13:42:54.818Z,75.4
2022-11-18T13:44:10.015Z,75.3
2022-11-18T13:45:26.199Z,75.3
2022-11-18T13:46:42.386Z,75.4
2022-11-18T13:47:58.586Z,75.6
2022-11-18T13:49:14.610Z,75.6
2022-11-18T13:50:30.951Z,75.6
2022-11-18T13:51:47.151Z,75.7
2022-11-18T13:53:03.170Z,75.6
2022-11-18T13:54:19.358Z,75.7
2022-11-18T13:55:35.555Z,75.7
2022-11-18T13:56:51.902Z,75.5
2022-11-18T13:58:08.091Z,75.7
2022-11-18T13:59:24.120Z,75.7
2022-11-18T14:00:39.475Z,75.7
2022-11-18T14:01:55.657Z,75.8
2022-11-18T14:03:11.685Z,75.8
2022-11-18T14:04:28.028Z,75.8
2022-11-18T14:05:44.230Z,75.8
2022-11-18T14:07:00.260Z,75.8
2022-11-18T14:08:16.602Z,75.9
2022-11-18T14:09:32.785Z,75.9
2022-11-18T14:10:48.816Z,75.8
2022-11-18T14:12:05.000Z,75.9
2022-11-18T14:13:21.347Z,75.9
2022-11-18T14:14:37.383Z,75.9
2022-11-18T14:15:53.561Z,75.9
2022-11-18T14:17:08.937Z,75.8
2022-11-18T14:18:24.958Z,75.9
2022-11-18T14:19:41.315Z,76
2022-11-18T14:20:57.334Z,76
2022-11-18T14:22:13.685Z,75.9
2022-11-18T14:23:29.869Z,75.8
2022-11-18T14:24:46.062Z,76
2022-11-18T14:26:02.071Z,76.1
2022-11-18T14:27:18.276Z,76
2022-11-18T14:28:34.630Z,76.1
2022-11-18T14:29:50.812Z,76.1
2022-11-18T14:31:07.000Z,76
2022-11-18T14:32:23.195Z,76
2022-11-18T14:33:38.223Z,76
2022-11-18T14:34:54.583Z,76.2
2022-11-18T14:36:10.601Z,76.3
2022-11-18T14:37:26.952Z,76.3
2022-11-18T14:38:42.976Z,76.2
2022-11-18T14:39:59.344Z,76.4
2022-11-18T14:41:15.526Z,76.3
2022-11-18T14:42:31.707Z,76.5
2022-11-18T14:43:47.739Z,76.4
2022-11-18T14:45:03.931Z,76.3
2022-11-18T14:46:20.288Z,76.4
2022-11-18T14:47:36.475Z,76.2
2022-11-18T14:48:52.481Z,76.3
2022-11-18T14:50:07.865Z,76.5
2022-11-18T14:51:23.877Z,76.3
2022-11-18T14:52:40.249Z,76.4
2022-11-18T14:53:56.432Z,76.4
2022-11-18T14:55:12.613Z,76.5
2022-11-18T14:56:28.629Z,76.5
2022-11-18T14:57:44.827Z,76.4
2022-11-18T14:59:01.198Z,76.4
2022-11-18T15:00:17.377Z,76.6
2022-11-18T15:01:33.559Z,76.4
2022-11-18T15:02:49.756Z,76.4
2022-11-18T15:04:05.941Z,76.3
2022-11-18T15:05:22.134Z,76.4
2022-11-18T15:06:37.344Z,76.7
2022-11-18T15:07:53.533Z,76.7
2022-11-18T15:09:09.722Z,76.7
2022-11-18T15:10:25.730Z,76.6
2022-11-18T15:11:41.922Z,76.7
2022-11-18T15:12:58.291Z,76.6
2022-11-18T15:14:14.481Z,76.6
2022-11-18T15:15:30.656Z,76.7
2022-11-18T15:16:46.858Z,76.7
2022-11-18T15:18:03.035Z,76.7
2022-11-18T15:19:19.048Z,76.7
2022-11-18T15:20:35.422Z,76.6
2022-11-18T15:21:51.601Z,76.8
2022-11-18T15:23:06.814Z,76.7
2022-11-18T15:24:23.006Z,76.7
2022-11-18T15:25:39.200Z,76.6
2022-11-18T15:26:55.194Z,76.6
2022-11-18T15:28:11.570Z,76.6
2022-11-18T15:29:27.752Z,76.7
2022-11-18T15:30:43.772Z,76.6
2022-11-18T15:31:59.963Z,76.8
2022-11-18T15:33:16.331Z,76.7
2022-11-18T15:34:32.325Z,76.7
2022-11-18T15:35:48.519Z,76.6
2022-11-18T15:37:04.706Z,76.6
2022-11-18T15:38:21.091Z,76.5
2022-11-18T15:39:36.282Z,76.7
2022-11-18T15:40:52.487Z,76.5
2022-11-18T15:42:08.481Z,76.6
2022-11-18T15:43:24.852Z,76.7
2022-11-18T15:44:41.052Z,76.5
2022-11-18T15:45:57.244Z,76.5
2022-11-18T15:47:13.242Z,76.6
2022-11-18T15:48:29.614Z,76.5
2022-11-18T15:49:45.613Z,76.5
2022-11-18T15:51:01.987Z,76.4
2022-11-18T15:52:18.190Z,76.6
2022-11-18T15:53:34.363Z,76.3
2022-11-18T15:54:50.369Z,76.4
2022-11-18T15:56:05.583Z,76.4
2022-11-18T15:57:21.766Z,76.6
2022-11-18T15:58:38.136Z,76.4
2022-11-18T15:59:54.337Z,76.6
2022-11-18T16:01:10.343Z,76.5
2022-11-18T16:02:26.710Z,76.5
2022-11-18T16:03:41.926Z,76.6
2022-11-18T16:04:57.921Z,76.7
2022-11-18T16:06:14.307Z,76.4
2022-11-18T16:07:30.488Z,76.9
2022-11-18T16:08:46.496Z,76.6
2022-11-18T16:10:02.862Z,76.5
2022-11-18T16:11:19.056Z,76.4
2022-11-18T16:12:35.060Z,76.4
2022-11-18T16:13:51.434Z,76.4
2022-11-18T16:15:07.624Z,76.5
2022-11-18T16:16:23.818Z,76.6
2022-11-18T16:17:39.996Z,76.5
2022-11-18T16:18:56.183Z,76.5
2022-11-18T16:20:11.211Z,76.7
2022-11-18T16:21:27.394Z,76.7
2022-11-18T16:22:43.779Z,76.7
2022-11-18T16:23:59.977Z,76.7
2022-11-18T16:25:15.968Z,76.8
2022-11-18T16:26:32.341Z,76.8
2022-11-18T16:27:48.333Z,76.7
2022-11-18T16:29:04.531Z,76.8
2022-11-18T16:30:20.905Z,76.6
2022-11-18T16:31:37.112Z,76.6
2022-11-18T16:32:53.107Z,76.7
2022-11-18T16:34:09.487Z,76.8
2022-11-18T16:35:25.681Z,76.8
2022-11-18T16:36:40.683Z,76.6
2022-11-18T16:37:57.071Z,76.7
2022-11-18T16:39:13.068Z,76.9
2022-11-18T16:40:29.445Z,76.8
2022-11-18T16:41:45.446Z,76.9
2022-11-18T16:43:01.628Z,76.9
2022-11-18T16:44:18.012Z,76.8
2022-11-18T16:45:34.192Z,76.9
2022-11-18T16:46:50.391Z,76.9
2022-11-18T16:48:06.576Z,77
2022-11-18T16:49:22.776Z,76.8
2022-11-18T16:50:38.766Z,76.9
2022-11-18T16:51:54.942Z,77.1
2022-11-18T16:53:10.352Z,76.9
2022-11-18T16:54:26.539Z,76.8
2022-11-18T16:55:42.731Z,76.9
2022-11-18T16:56:58.931Z,76.9
2022-11-18T16:58:14.910Z,76.9
2022-11-18T16:59:31.298Z,76.8
2022-11-18T17:00:47.497Z,76.8
2022-11-18T17:02:03.482Z,77
2022-11-18T17:03:19.678Z,77